Time;durP1;ratioP1;P1;durP2;ratioP2;P2;SDS_P1;SDS_P2;PMS_P1;PMS_P2;Temp;Humidity;BMP_temperature;BMP_pressure;BME280_temperature;BME280_humidity;BME280_pressure;Samples;Min_cycle;Max_cycle;Signal;HPM_P1;HPM_P2
2023/07/19 00:01:30;;;;;;;4.00;1.80;;;;;;;14.81;100.00;100999.03;5064573;28;20353;-78
2023/07/19 00:03:55;;;;;;;8.57;2.47;;;;;;;14.77;100.00;100970.84;5044833;28;20044;-77
2023/07/19 00:06:20;;;;;;;2.10;1.50;;;;;;;14.84;100.00;100958.31;5047644;28;20058;-78
2023/07/19 00:08:46;;;;;;;20.80;2.57;;;;;;;14.80;100.00;100961.56;5047402;28;20517;-78
2023/07/19 00:11:11;;;;;;;3.73;1.80;;;;;;;14.82;100.00;100962.22;5034977;28;20529;-75
2023/07/19 00:13:37;;;;;;;5.17;2.17;;;;;;;14.90;100.00;100994.41;5033186;28;20389;-78
2023/07/19 00:16:02;;;;;;;4.83;2.30;;;;;;;14.87;100.00;100997.47;5033903;28;20033;-78
2023/07/19 00:18:28;;;;;;;5.30;2.30;;;;;;;14.80;100.00;101005.44;5051033;28;20020;-77
2023/07/19 00:20:53;;;;;;;2.97;2.20;;;;;;;14.69;100.00;100990.56;5035729;28;20388;-78
2023/07/19 00:23:18;;;;;;;3.97;2.23;;;;;;;14.66;100.00;100982.88;5050155;28;20028;-75
2023/07/19 00:25:45;;;;;;;7.00;2.67;;;;;;;14.62;100.00;100984.25;5048621;28;20040;-75
2023/07/19 00:28:11;;;;;;;4.70;2.30;;;;;;;14.49;100.00;100982.19;5047464;28;20416;-78
2023/07/19 00:30:37;;;;;;;4.33;2.77;;;;;;;14.49;100.00;100981.34;5048717;28;20029;-77
2023/07/19 00:33:03;;;;;;;4.07;2.90;;;;;;;14.56;100.00;100985.84;5033720;28;20429;-77
2023/07/19 00:35:29;;;;;;;5.18;2.72;;;;;;;14.57;100.00;100968.69;5034413;28;20051;-75
2023/07/19 00:37:54;;;;;;;3.20;2.40;;;;;;;14.63;100.00;100971.66;5051082;28;20428;-76
2023/07/19 00:40:20;;;;;;;8.50;2.30;;;;;;;14.62;100.00;100981.59;5035540;28;20024;-78
2023/07/19 00:42:45;;;;;;;5.70;2.40;;;;;;;14.53;100.00;100971.91;5048045;28;20040;-78
2023/07/19 00:45:11;;;;;;;5.97;2.37;;;;;;;14.48;100.00;100971.63;5034946;28;20029;-77
2023/07/19 00:47:38;;;;;;;5.60;3.13;;;;;;;14.46;100.00;100976.34;5050755;28;20017;-78
2023/07/19 00:50:03;;;;;;;5.22;2.30;;;;;;;14.46;100.00;100990.59;5049938;28;20560;-78
2023/07/19 00:52:29;;;;;;;4.65;2.40;;;;;;;14.42;100.00;100983.94;5049617;28;20024;-77
2023/07/19 00:54:56;;;;;;;8.23;3.25;;;;;;;14.41;100.00;100989.47;5048581;28;20044;-78
2023/07/19 00:57:22;;;;;;;6.90;2.97;;;;;;;14.29;100.00;100973.78;5052938;28;20016;-78
2023/07/19 00:59:47;;;;;;;3.42;2.35;;;;;;;14.25;100.00;100966.28;5050244;28;20043;-78
2023/07/19 01:02:13;;;;;;;5.43;2.90;;;;;;;14.27;100.00;100967.75;5033194;28;20330;-76
2023/07/19 01:04:39;;;;;;;6.43;2.97;;;;;;;14.24;100.00;100962.75;5037927;28;20032;-74
2023/07/19 01:07:05;;;;;;;8.02;2.70;;;;;;;14.21;100.00;100965.81;5047853;28;20570;-77
2023/07/19 01:09:31;;;;;;;5.97;2.80;;;;;;;14.20;100.00;100950.72;5050914;28;20092;-78
2023/07/19 01:11:57;;;;;;;7.47;2.60;;;;;;;14.29;100.00;100967.59;5035810;28;20357;-77
2023/07/19 01:14:22;;;;;;;5.30;2.50;;;;;;;14.26;100.00;100962.59;5033925;28;20033;-78
2023/07/19 01:16:47;;;;;;;3.27;2.30;;;;;;;14.23;100.00;100950.34;5050958;28;20020;-77
2023/07/19 01:19:15;;;;;;;3.33;2.17;;;;;;;14.24;100.00;100940.47;5052307;28;20129;-78
2023/07/19 01:21:40;;;;;;;6.70;2.67;;;;;;;14.22;100.00;100924.50;5026810;28;20051;-76
2023/07/19 01:24:06;;;;;;;3.60;3.28;;;;;;;14.31;100.00;100931.47;5044031;28;20266;-77
2023/07/19 01:26:32;;;;;;;5.72;2.22;;;;;;;14.16;100.00;100917.19;5035231;28;20477;-77
2023/07/19 01:29:00;;;;;;;4.60;2.63;;;;;;;14.26;100.00;100925.84;5050381;28;20037;-78
2023/07/19 01:31:26;;;;;;;3.80;2.17;;;;;;;14.28;100.00;100923.81;5048078;28;20045;-76
2023/07/19 01:33:51;;;;;;;5.67;2.33;;;;;;;14.33;100.00;100934.00;5065289;28;20532;-76
2023/07/19 01:36:18;;;;;;;3.85;2.10;;;;;;;14.30;100.00;100929.78;5034830;28;20013;-77
2023/07/19 01:38:43;;;;;;;3.13;2.13;;;;;;;14.24;100.00;100917.13;5032946;28;20040;-75
2023/07/19 01:41:08;;;;;;;7.43;2.50;;;;;;;14.23;100.00;100926.16;5062870;28;20032;-75
2023/07/19 01:43:34;;;;;;;15.27;3.07;;;;;;;14.13;100.00;100913.00;5060467;28;20033;-77
2023/07/19 01:46:00;;;;;;;4.18;2.50;;;;;;;14.26;100.00;100925.84;5046433;28;20039;-78
2023/07/19 01:48:25;;;;;;;4.10;2.47;;;;;;;14.30;100.00;100948.59;5045482;28;20040;-77
2023/07/19 01:50:51;;;;;;;4.13;2.17;;;;;;;14.23;100.00;100944.97;5037969;28;20044;-77
2023/07/19 01:53:16;;;;;;;7.63;2.23;;;;;;;14.19;100.00;100945.50;5045823;28;20068;-78
2023/07/19 01:55:42;;;;;;;14.67;3.30;;;;;;;14.26;100.00;100936.56;5064848;28;20294;-77
2023/07/19 01:58:11;;;;;;;7.95;2.70;;;;;;;14.36;100.00;100966.69;5047200;28;20036;-76
2023/07/19 02:00:37;;;;;;;9.48;5.22;;;;;;;14.33;100.00;100968.91;5025085;28;20064;-76
2023/07/19 02:03:02;;;;;;;10.90;3.40;;;;;;;14.26;100.00;100976.84;5063034;28;20064;-78
2023/07/19 02:05:28;;;;;;;5.85;3.08;;;;;;;14.20;100.00;100982.94;5032548;28;20587;-78
2023/07/19 02:07:53;;;;;;;9.38;2.85;;;;;;;14.13;100.00;100968.56;5045598;28;20041;-74
2023/07/19 02:10:19;;;;;;;4.73;2.83;;;;;;;13.97;100.00;100949.91;5031131;28;20107;-76
2023/07/19 02:12:45;;;;;;;5.32;2.72;;;;;;;14.01;100.00;100970.84;5044718;28;20040;-77
2023/07/19 02:15:11;;;;;;;9.67;3.97;;;;;;;14.00;100.00;100977.22;5030773;28;20023;-75
2023/07/19 02:17:36;;;;;;;10.93;3.60;;;;;;;14.00;100.00;100979.91;5029530;28;20098;-78
2023/07/19 02:20:02;;;;;;;6.53;4.20;;;;;;;14.06;100.00;100997.97;5063993;28;20128;-77
2023/07/19 02:22:28;;;;;;;7.30;3.03;;;;;;;13.99;100.00;100980.09;5031204;28;20024;-77
2023/07/19 02:24:53;;;;;;;5.47;3.27;;;;;;;13.91;100.00;100970.25;5028845;28;20024;-77
2023/07/19 02:27:19;;;;;;;5.80;3.72;;;;;;;13.87;100.00;100972.44;5047903;28;20064;-76
2023/07/19 02:29:44;;;;;;;6.43;3.30;;;;;;;13.90;100.00;100985.50;5046599;28;20036;-78
2023/07/19 02:32:10;;;;;;;9.67;4.40;;;;;;;13.90;100.00;100985.50;5034372;28;20115;-78
2023/07/19 02:34:37;;;;;;;6.03;3.17;;;;;;;13.83;100.00;100981.84;5065771;28;20020;-77
2023/07/19 02:37:04;;;;;;;9.07;3.90;;;;;;;13.64;100.00;100971.59;5048364;28;20565;-75
2023/07/19 02:39:30;;;;;;;6.40;3.35;;;;;;;13.74;100.00;100982.94;5048236;28;20031;-77
2023/07/19 02:41:56;;;;;;;10.43;4.13;;;;;;;13.71;100.00;100973.38;5046217;28;20104;-77
2023/07/19 02:44:22;;;;;;;11.38;3.88;;;;;;;13.62;100.00;100962.88;5032262;28;20016;-78
2023/07/19 02:46:47;;;;;;;9.02;3.97;;;;;;;13.68;100.00;100956.81;5046004;28;20090;-78
2023/07/19 02:49:13;;;;;;;6.67;3.40;;;;;;;13.60;100.00;100955.03;5048190;28;20024;-78
2023/07/19 02:51:38;;;;;;;4.28;3.00;;;;;;;13.69;100.00;100974.56;5048274;28;20032;-75
2023/07/19 02:54:03;;;;;;;7.10;3.20;;;;;;;13.73;100.00;100981.28;5047993;28;20028;-74
2023/07/19 02:56:29;;;;;;;12.53;3.57;;;;;;;13.62;100.00;100950.31;5033229;28;20395;-77
2023/07/19 02:58:54;;;;;;;16.50;3.93;;;;;;;13.75;100.00;100973.06;5029886;28;20105;-77
2023/07/19 03:01:19;;;;;;;7.90;3.93;;;;;;;13.70;100.00;100965.53;5032478;28;20033;-77
2023/07/19 03:03:45;;;;;;;6.57;3.67;;;;;;;13.70;100.00;100966.34;5031690;28;20032;-78
2023/07/19 03:06:11;;;;;;;9.63;4.97;;;;;;;13.74;100.00;100969.50;5037692;28;20477;-77
2023/07/19 03:08:37;;;;;;;8.27;5.03;;;;;;;13.71;100.00;100956.47;5048953;28;20534;-78
2023/07/19 03:11:05;;;;;;;10.98;4.72;;;;;;;13.63;100.00;100951.16;5050831;28;20075;-77
2023/07/19 03:13:30;;;;;;;6.85;4.05;;;;;;;13.69;100.00;100974.56;5049838;28;20031;-76
2023/07/19 03:15:56;;;;;;;7.82;4.05;;;;;;;13.62;100.00;100963.72;5066485;28;20037;-78
2023/07/19 03:18:21;;;;;;;7.30;4.93;;;;;;;13.67;100.00;100971.22;5033750;28;20051;-77
2023/07/19 03:20:46;;;;;;;8.03;4.73;;;;;;;13.64;100.00;100976.97;5031181;28;20111;-77
2023/07/19 03:23:12;;;;;;;8.73;4.80;;;;;;;13.57;100.00;100965.28;5033751;28;20027;-77
2023/07/19 03:25:37;;;;;;;7.33;4.10;;;;;;;13.57;100.00;100959.91;5033146;28;20036;-79
2023/07/19 03:28:03;;;;;;;9.35;4.30;;;;;;;13.58;100.00;100945.47;5032213;28;20771;-76
2023/07/19 03:30:29;;;;;;;7.50;4.35;;;;;;;13.51;100.00;100954.25;5049617;28;20046;-76
2023/07/19 03:32:54;;;;;;;8.63;4.30;;;;;;;13.49;100.00;100952.75;5046889;28;20021;-78
2023/07/19 03:35:20;;;;;;;7.18;3.92;;;;;;;13.55;100.00;100948.50;5050219;28;20103;-78
2023/07/19 03:37:45;;;;;;;9.63;3.87;;;;;;;13.48;100.00;100941.16;5031578;28;20021;-78
2023/07/19 03:40:12;;;;;;;;;;;;;;;13.37;100.00;100933.53;5032443;28;20024;-79
2023/07/19 03:42:37;;;;;;;;;;;;;;;13.29;100.00;100931.72;5061128;28;20293;-77
2023/07/19 03:45:04;;;;;;;;;;;;;;;13.21;100.00;100928.22;5050689;28;19921;-77
2023/07/19 03:47:29;;;;;;;7.40;4.20;;;;;;;13.12;100.00;100919.38;5046845;28;19919;-77
2023/07/19 03:49:55;;;;;;;8.50;4.13;;;;;;;13.10;100.00;100916.88;5048378;28;20037;-77
2023/07/19 03:52:20;;;;;;;11.03;5.13;;;;;;;13.14;100.00;100911.19;5033612;28;20085;-77
2023/07/19 03:54:46;;;;;;;6.38;3.55;;;;;;;13.23;100.00;100924.38;5030870;28;20501;-77
2023/07/19 03:57:11;;;;;;;10.70;3.80;;;;;;;13.24;100.00;100911.78;5031084;28;20025;-77
2023/07/19 03:59:37;;;;;;;15.43;5.15;;;;;;;13.32;100.00;100918.97;5046612;28;20032;-77
2023/07/19 04:02:03;;;;;;;5.80;3.10;;;;;;;13.15;100.00;100900.25;5045821;28;20025;-77
2023/07/19 04:04:29;;;;;;;13.85;3.80;;;;;;;12.97;100.00;100889.81;5029225;28;20032;-77
2023/07/19 04:06:57;;;;;;;11.65;3.13;;;;;;;13.20;100.00;100918.50;5050743;28;20086;-77
2023/07/19 04:09:22;;;;;;;4.60;2.83;;;;;;;13.36;100.00;100931.84;5025122;28;20080;-77
2023/07/19 04:11:47;;;;;;;4.63;3.03;;;;;;;13.50;100.00;100935.63;5029433;28;20017;-77
2023/07/19 04:14:13;;;;;;;7.37;2.70;;;;;;;13.38;100.00;100934.38;5033925;28;20125;-77
2023/07/19 04:16:41;;;;;;;5.80;2.92;;;;;;;13.37;100.00;100919.28;5042986;28;20035;-75
2023/07/19 04:19:06;;;;;;;8.02;2.80;;;;;;;13.20;100.00;100905.94;5033214;28;20040;-77
2023/07/19 04:21:32;;;;;;;5.33;2.93;;;;;;;13.22;100.00;100895.03;5030629;28;20024;-77
2023/07/19 04:23:57;;;;;;;7.20;3.27;;;;;;;13.37;100.00;100901.34;5048318;28;20553;-77
2023/07/19 04:26:23;;;;;;;6.17;2.73;;;;;;;13.32;100.00;100887.63;5033238;28;20044;-77
2023/07/19 04:28:48;;;;;;;4.60;3.23;;;;;;;13.27;100.00;100887.28;5043527;28;20485;-77
2023/07/19 04:31:14;;;;;;;7.95;2.78;;;;;;;13.26;100.00;100882.94;5045166;28;20024;-77
2023/07/19 04:33:41;;;;;;;7.38;3.08;;;;;;;13.30;100.00;100882.47;5043887;28;20032;-77
2023/07/19 04:36:16;;;;;;;14.57;3.90;;;;;;;13.44;100.00;100888.91;5029489;28;20385;-77
2023/07/19 04:38:44;;;;;;;5.28;3.13;;;;;;;13.42;100.00;100885.56;5047460;28;20063;-77
2023/07/19 04:41:11;;;;;;;7.60;3.50;;;;;;;13.51;100.00;100897.09;5053925;28;20020;-78
2023/07/19 04:43:36;;;;;;;7.85;3.70;;;;;;;13.49;100.00;100885.69;5031457;28;20043;-77
2023/07/19 04:46:04;;;;;;;6.28;2.75;;;;;;;13.55;100.00;100884.97;5031015;28;20020;-77
2023/07/19 04:48:30;;;;;;;6.25;3.20;;;;;;;13.55;100.00;100876.09;5035168;28;20024;-77
2023/07/19 04:50:56;;;;;;;4.95;2.72;;;;;;;13.50;100.00;100865.91;5066431;28;20033;-77
2023/07/19 04:53:24;;;;;;;3.85;2.58;;;;;;;13.51;100.00;100871.09;5049183;28;20066;-77
2023/07/19 04:55:53;;;;;;;5.57;2.25;;;;;;;13.55;100.00;100860.00;5028890;28;20060;-77
2023/07/19 04:58:20;;;;;;;3.83;2.53;;;;;;;13.64;100.00;100864.28;5030459;28;20054;-77
2023/07/19 05:00:46;;;;;;;4.30;2.30;;;;;;;13.67;100.00;100858.56;5027050;28;20020;-77
2023/07/19 05:03:11;;;;;;;6.90;2.67;;;;;;;13.58;100.00;100838.16;5044740;28;20085;-77
2023/07/19 05:05:38;;;;;;;6.13;2.40;;;;;;;13.59;100.00;100839.84;5021530;28;20107;-77
2023/07/19 05:08:06;;;;;;;7.10;2.67;;;;;;;13.48;100.00;100841.91;5043406;28;20293;-77
2023/07/19 05:10:36;;;;;;;6.20;2.72;;;;;;;13.61;100.00;100851.25;5027756;28;20035;-78
2023/07/19 05:13:03;;;;;;;5.30;3.63;;;;;;;13.69;100.00;100843.09;5023372;28;20044;-77
2023/07/19 05:15:29;;;;;;;8.85;2.83;;;;;;;13.67;100.00;100832.59;5048313;28;20071;-77
2023/07/19 05:17:55;;;;;;;5.82;2.50;;;;;;;13.61;100.00;100832.47;5035528;28;20021;-76
2023/07/19 05:20:21;;;;;;;6.55;2.90;;;;;;;13.50;100.00;100831.84;5036868;28;20028;-77
2023/07/19 05:22:46;;;;;;;6.10;2.67;;;;;;;13.49;100.00;100840.94;5044447;28;20060;-77
2023/07/19 05:25:12;;;;;;;9.00;3.23;;;;;;;13.28;100.00;100833.53;5027413;28;20057;-77
2023/07/19 05:27:37;;;;;;;3.83;2.30;;;;;;;13.38;100.00;100845.88;5044987;28;20036;-77
2023/07/19 05:30:04;;;;;;;4.60;2.90;;;;;;;13.43;100.00;100855.03;5041128;28;20623;-77
2023/07/19 05:32:29;;;;;;;6.68;2.88;;;;;;;13.43;100.00;100848.84;5024859;28;20056;-77
2023/07/19 05:34:55;;;;;;;10.27;2.93;;;;;;;13.32;100.00;100828.63;5042245;28;20029;-77
2023/07/19 05:37:20;;;;;;;6.43;2.87;;;;;;;13.54;100.00;100858.34;5061869;28;20478;-77
2023/07/19 05:39:47;;;;;;;10.73;3.20;;;;;;;13.65;100.00;100860.56;5025666;28;20046;-77
2023/07/19 05:42:12;;;;;;;5.95;2.85;;;;;;;13.48;100.00;100847.28;5039775;28;20029;-77
2023/07/19 05:44:37;;;;;;;6.03;2.90;;;;;;;13.61;100.00;100859.28;5043815;28;20078;-77
2023/07/19 05:47:03;;;;;;;6.22;3.30;;;;;;;13.71;100.00;100866.06;5054786;28;20127;-77
2023/07/19 05:49:29;;;;;;;5.03;2.30;;;;;;;13.65;100.00;100852.53;5029115;28;20028;-77
2023/07/19 05:51:54;;;;;;;9.30;2.87;;;;;;;13.71;100.00;100843.78;5041136;28;20040;-77
2023/07/19 05:54:19;;;;;;;6.07;3.47;;;;;;;13.77;100.00;100831.50;5043956;28;20020;-77
2023/07/19 05:56:46;;;;;;;7.37;3.13;;;;;;;13.88;100.00;100847.13;5042103;28;20519;-78
2023/07/19 05:59:11;;;;;;;4.75;2.60;;;;;;;13.84;100.00;100844.00;5041084;28;20449;-77
2023/07/19 06:01:37;;;;;;;3.33;2.90;;;;;;;13.86;100.00;100841.97;5046804;28;20117;-76
2023/07/19 06:04:03;;;;;;;7.05;3.15;;;;;;;13.85;100.00;100851.03;5031762;28;20051;-77
2023/07/19 06:06:28;;;;;;;6.05;3.28;;;;;;;13.96;100.00;100867.72;5039396;28;20136;-77
2023/07/19 06:08:54;;;;;;;4.60;2.40;;;;;;;13.92;100.00;100865.38;5066530;28;20062;-77
2023/07/19 06:11:19;;;;;;;5.60;3.50;;;;;;;13.87;100.00;100867.78;5028522;28;20120;-77
2023/07/19 06:13:44;;;;;;;6.77;3.57;;;;;;;13.97;100.00;100891.69;5031802;28;20025;-77
2023/07/19 06:16:10;;;;;;;8.00;4.00;;;;;;;13.94;100.00;100886.69;5036438;28;20029;-77
2023/07/19 06:18:35;;;;;;;5.03;2.83;;;;;;;13.91;100.00;100874.47;5061884;28;20029;-77
2023/07/19 06:21:00;;;;;;;5.30;3.23;;;;;;;13.94;100.00;100871.41;5023574;28;20039;-78
2023/07/19 06:23:26;;;;;;;5.73;3.43;;;;;;;13.94;100.00;100882.13;5065454;28;20024;-77
2023/07/19 06:25:51;;;;;;;6.23;3.90;;;;;;;13.90;100.00;100874.63;5066026;28;20028;-77
2023/07/19 06:28:17;;;;;;;7.23;3.70;;;;;;;13.90;100.00;100872.78;5061183;28;20056;-77
2023/07/19 06:30:42;;;;;;;6.00;3.20;;;;;;;14.01;100.00;100887.63;5037473;28;20620;-77
2023/07/19 06:33:09;;;;;;;9.63;3.50;;;;;;;14.03;100.00;100882.91;5036011;28;20044;-77
2023/07/19 06:35:34;;;;;;;;;;;;;;;14.09;100.00;100882.19;5044018;28;20025;-77
2023/07/19 06:38:00;;;;;;;;;;;;;;;14.11;100.00;100877.44;5062469;28;20365;-77
2023/07/19 06:40:26;;;;;;;10.70;2.55;;;;;;;13.82;100.00;100855.94;5045560;28;19924;-76
2023/07/19 06:42:55;;;;;;;6.90;2.75;;;;;;;13.89;100.00;100846.97;5054778;28;20041;-77
2023/07/19 06:45:20;;;;;;;5.65;3.10;;;;;;;13.87;100.00;100827.53;5027722;28;20033;-77
2023/07/19 06:47:46;;;;;;;8.10;3.30;;;;;;;13.85;100.00;100834.91;5056430;28;20028;-77
2023/07/19 06:50:12;;;;;;;6.23;2.87;;;;;;;13.98;100.00;100845.06;5035960;28;20032;-77
2023/07/19 06:52:37;;;;;;;3.80;2.72;;;;;;;13.83;100.00;100830.75;5023470;28;20108;-77
2023/07/19 06:55:04;;;;;;;6.03;3.60;;;;;;;13.71;100.00;100828.50;5052391;28;20045;-76
2023/07/19 06:57:29;;;;;;;3.70;3.15;;;;;;;13.73;100.00;100831.00;5060081;28;20278;-76
2023/07/19 06:59:54;;;;;;;8.33;3.40;;;;;;;13.97;100.00;100837.16;5036666;28;20041;-77
2023/07/19 07:02:20;;;;;;;6.07;2.70;;;;;;;14.15;100.00;100832.28;5012291;28;20033;-77
2023/07/19 07:04:46;;;;;;;10.77;3.67;;;;;;;14.20;100.00;100826.38;5054367;28;20036;-77
2023/07/19 07:07:11;;;;;;;6.75;4.15;;;;;;;14.19;100.00;100822.00;5031341;28;20044;-78
2023/07/19 07:09:37;;;;;;;4.78;3.28;;;;;;;14.03;100.00;100823.03;5047156;28;20032;-77
2023/07/19 07:12:04;;;;;;;7.97;3.10;;;;;;;13.93;100.00;100826.81;5046378;28;20135;-77
2023/07/19 07:14:29;;;;;;;4.60;3.05;;;;;;;13.90;100.00;100832.50;5061344;28;20386;-77
2023/07/19 07:16:54;;;;;;;6.47;3.47;;;;;;;13.94;100.00;100833.81;5040778;28;20036;-77
2023/07/19 07:19:20;;;;;;;7.93;3.20;;;;;;;13.94;100.00;100836.50;5059984;28;20441;-77
2023/07/19 07:21:45;;;;;;;8.57;3.20;;;;;;;13.85;100.00;100829.56;5059120;28;20039;-77
2023/07/19 07:24:10;;;;;;;6.87;3.33;;;;;;;13.89;100.00;100838.91;5030473;28;20074;-77
2023/07/19 07:26:36;;;;;;;4.87;3.17;;;;;;;13.89;100.00;100832.72;5042188;28;20044;-77
2023/07/19 07:29:01;;;;;;;6.93;3.53;;;;;;;13.83;100.00;100826.22;5058537;28;20029;-77
2023/07/19 07:31:27;;;;;;;4.70;3.40;;;;;;;13.61;100.00;100838.66;5061215;28;20086;-77
2023/07/19 07:33:52;;;;;;;12.00;4.57;;;;;;;13.51;100.00;100832.72;5039623;28;20099;-77
2023/07/19 07:36:17;;;;;;;19.37;4.60;;;;;;;13.28;100.00;100849.63;5042709;28;20031;-76
2023/07/19 07:38:43;;;;;;;8.43;4.10;;;;;;;13.38;100.00;100870.84;5041014;28;20497;-77
2023/07/19 07:41:11;;;;;;;6.70;3.37;;;;;;;13.42;100.00;100872.16;5044749;28;20036;-77
2023/07/19 07:43:37;;;;;;;10.57;3.33;;;;;;;13.56;100.00;100877.78;5040885;28;20040;-77
2023/07/19 07:46:02;;;;;;;;;;;;;;;13.55;100.00;100868.88;5060204;28;20036;-77
2023/07/19 07:48:28;;;;;;;4.68;2.90;;;;;;;13.85;100.00;100871.66;5042693;28;19916;-76
2023/07/19 07:50:53;;;;;;;8.97;3.33;;;;;;;14.07;100.00;100869.94;5060217;28;20112;-76
2023/07/19 07:53:19;;;;;;;7.97;3.80;;;;;;;14.39;100.00;100871.47;5041945;28;20505;-77
2023/07/19 07:55:45;;;;;;;12.07;3.75;;;;;;;14.25;100.00;100856.19;5058782;28;20470;-76
2023/07/19 07:58:11;;;;;;;5.82;3.38;;;;;;;14.38;100.00;100871.69;5044891;28;20054;-77
2023/07/19 08:00:36;;;;;;;8.43;3.17;;;;;;;14.30;100.00;100853.78;5041385;28;20021;-76
2023/07/19 08:03:02;;;;;;;4.43;3.22;;;;;;;13.98;100.00;100828.94;5040162;28;20041;-77
2023/07/19 08:05:27;;;;;;;5.72;3.67;;;;;;;14.02;100.00;100840.97;5042478;28;20554;-77
2023/07/19 08:07:52;;;;;;;5.43;3.60;;;;;;;14.18;100.00;100842.66;5026536;28;20101;-77
2023/07/19 08:10:18;;;;;;;5.50;3.17;;;;;;;13.89;100.00;100820.13;5043375;28;20056;-77
2023/07/19 08:12:43;;;;;;;6.95;3.50;;;;;;;13.84;100.00;100809.13;5039290;28;20041;-76
2023/07/19 08:15:09;;;;;;;8.70;3.60;;;;;;;13.83;100.00;100828.91;5060330;28;20024;-77
2023/07/19 08:17:35;;;;;;;6.18;3.60;;;;;;;13.85;100.00;100829.56;5041474;28;20027;-77
2023/07/19 08:20:00;;;;;;;11.80;4.60;;;;;;;13.86;100.00;100833.06;5040854;28;20510;-77
2023/07/19 08:22:27;;;;;;;6.70;3.70;;;;;;;13.67;100.00;100826.34;5041683;28;20032;-76
2023/07/19 08:24:53;;;;;;;7.95;3.63;;;;;;;13.67;100.00;100837.94;5041170;28;20025;-77
2023/07/19 08:27:19;;;;;;;5.72;3.45;;;;;;;13.63;100.00;100838.50;5042100;28;20075;-77
2023/07/19 08:29:44;;;;;;;4.88;2.67;;;;;;;13.60;100.00;100836.13;5041023;28;20064;-77
2023/07/19 08:32:09;;;;;;;7.40;3.50;;;;;;;13.48;100.00;100825.00;5047985;28;20397;-76
2023/07/19 08:34:35;;;;;;;6.87;3.27;;;;;;;13.70;100.00;100845.63;5065302;28;20028;-77
2023/07/19 08:37:00;;;;;;;4.63;2.63;;;;;;;13.70;100.00;100842.13;5061887;28;20471;-77
2023/07/19 08:39:27;;;;;;;3.67;2.83;;;;;;;13.71;100.00;100836.53;5066065;28;20078;-77
2023/07/19 08:41:52;;;;;;;6.43;3.10;;;;;;;13.44;100.00;100827.22;5051325;28;20749;-78
2023/07/19 08:44:21;;;;;;;4.47;2.95;;;;;;;13.55;100.00;100834.00;5036318;28;20059;-75
2023/07/19 08:46:49;;;;;;;5.65;2.70;;;;;;;13.61;100.00;100832.47;5065093;28;20030;-77
2023/07/19 08:49:17;;;;;;;10.45;2.55;;;;;;;13.61;100.00;100829.78;5067071;28;20500;-77
2023/07/19 08:51:43;;;;;;;7.68;3.33;;;;;;;13.55;100.00;100820.59;5052349;28;20543;-78
2023/07/19 08:54:08;;;;;;;;;;;;;;;13.59;100.00;100821.06;5048148;28;20099;-77
2023/07/19 08:56:34;;;;;;;;;;;;;;;13.54;100.00;100818.09;5064667;28;20460;-77
2023/07/19 08:58:59;;;;;;;6.20;3.30;;;;;;;13.45;100.00;100820.84;5037857;28;20425;-77
2023/07/19 09:01:25;;;;;;;3.30;2.13;;;;;;;13.39;100.00;100818.03;5045283;28;20051;-77
2023/07/19 09:03:50;;;;;;;3.27;2.23;;;;;;;13.27;100.00;100794.34;5037692;28;20485;-76
2023/07/19 09:06:28;;;;;;;4.90;2.17;;;;;;;13.48;100.00;100815.09;5052120;28;20040;-76
2023/07/19 09:08:55;;;;;;;3.83;2.20;;;;;;;13.43;100.00;100814.81;5050103;28;20064;-77
2023/07/19 09:11:30;;;;;;;5.07;2.58;;;;;;;13.24;100.00;100800.00;5032667;28;20162;-78
2023/07/19 09:13:58;;;;;;;2.15;1.92;;;;;;;13.39;100.00;100815.34;5047097;28;20056;-78
2023/07/19 09:16:32;;;;;;;4.50;2.67;;;;;;;13.25;100.00;100807.06;5050045;28;20047;-76
2023/07/19 09:18:58;;;;;;;4.05;2.40;;;;;;;13.06;100.00;100800.31;5047628;28;20036;-78
2023/07/19 09:21:36;;;;;;;2.28;1.42;;;;;;;13.22;100.00;100820.78;5067296;28;20656;-76
2023/07/19 09:24:04;;;;;;;4.53;2.85;;;;;;;13.11;100.00;100815.88;5043313;28;20490;-77
2023/07/19 09:26:50;;;;;;;4.88;2.30;;;;;;;13.26;100.00;100802.53;5065857;28;20032;-76
2023/07/19 09:29:15;;;;;;;3.88;2.13;;;;;;;13.32;100.00;100806.34;5062590;28;20073;-78
2023/07/19 09:31:59;;;;;;;7.17;2.27;;;;;;;13.37;100.00;100820.91;5032141;28;20107;-77
2023/07/19 09:34:36;;;;;;;5.70;2.53;;;;;;;13.32;100.00;100814.41;5027781;28;20132;-76
2023/07/19 09:37:02;;;;;;;4.18;2.63;;;;;;;13.25;100.00;100819.59;5043993;28;20082;-76
2023/07/19 09:39:29;;;;;;;5.82;2.75;;;;;;;13.23;100.00;100835.06;5044082;28;20069;-76
2023/07/19 09:41:54;;;;;;;5.85;2.47;;;;;;;13.41;100.00;100845.50;5036935;28;20043;-77
2023/07/19 09:44:21;;;;;;;4.37;2.73;;;;;;;13.22;100.00;100833.38;5027972;28;20020;-77
2023/07/19 09:46:47;;;;;;;2.63;2.10;;;;;;;13.29;100.00;100842.41;5041451;28;20036;-76
2023/07/19 09:49:13;;;;;;;1.95;1.60;;;;;;;13.38;100.00;100833.28;5043878;28;20025;-77
2023/07/19 09:51:42;;;;;;;;;;;;;;;13.36;100.00;100831.81;5042916;28;20032;-77
2023/07/19 09:54:13;;;;;;;3.67;1.92;;;;;;;13.35;100.00;100830.16;5028380;28;20282;-76
2023/07/19 09:56:40;;;;;;;4.03;1.75;;;;;;;13.29;100.00;100812.91;5042701;28;20397;-76
2023/07/19 09:59:10;;;;;;;3.55;2.08;;;;;;;13.46;100.00;100818.97;5043372;28;20107;-76
2023/07/19 10:01:37;;;;;;;1.75;1.58;;;;;;;13.45;100.00;100818.16;5060518;28;20063;-77
2023/07/19 10:04:22;;;;;;;4.13;2.20;;;;;;;13.65;100.00;100818.50;5060786;28;20032;-77
2023/07/19 10:06:48;;;;;;;2.90;2.43;;;;;;;13.52;100.00;100796.81;5041774;28;20542;-76
2023/07/19 10:09:23;;;;;;;3.88;1.85;;;;;;;13.89;100.00;100817.44;5043432;28;20290;-77
2023/07/19 10:11:51;;;;;;;7.82;2.33;;;;;;;13.94;100.00;100801.63;5041476;28;20063;-76
2023/07/19 10:14:26;;;;;;;8.02;2.13;;;;;;;14.10;100.00;100797.13;5027874;28;20070;-77
2023/07/19 10:17:01;;;;;;;2.38;2.17;;;;;;;14.41;100.00;100814.88;5042325;28;20370;-77
2023/07/19 10:19:27;;;;;;;4.30;1.35;;;;;;;14.14;100.00;100790.34;5061175;28;20426;-77
2023/07/19 10:22:06;;;;;;;2.53;1.20;;;;;;;14.26;100.00;100778.13;5040897;28;20564;-77
2023/07/19 10:24:33;;;;;;;3.70;1.45;;;;;;;14.43;100.00;100769.88;5045431;28;20291;-77
2023/07/19 10:27:03;;;;;;;1.70;1.50;;;;;;;14.40;100.00;100765.72;5059837;28;20119;-78
2023/07/19 10:29:39;;;;;;;2.88;1.90;;;;;;;14.41;100.00;100769.22;5066095;28;20036;-77
2023/07/19 10:32:06;;;;;;;3.47;2.13;;;;;;;14.23;100.00;100777.66;5034038;28;20502;-79
2023/07/19 10:34:32;;;;;;;3.58;2.00;;;;;;;13.96;100.00;100779.16;5050306;28;20028;-77
2023/07/19 10:37:02;;;;;;;4.45;2.85;;;;;;;14.07;100.00;100801.00;5061835;28;20625;-75
2023/07/19 10:39:29;;;;;;;4.53;2.85;;;;;;;14.05;100.00;100818.31;5032027;28;20033;-74
2023/07/19 10:41:54;;;;;;;3.30;2.60;;;;;;;14.03;100.00;100810.44;5064715;28;20402;-77
2023/07/19 10:44:24;;;;;;;2.85;2.08;;;;;;;13.85;100.00;100805.41;5029002;28;20028;-76
2023/07/19 10:46:49;;;;;;;4.90;2.72;;;;;;;13.84;100.00;100793.00;5039854;28;20029;-76
2023/07/19 10:49:15;;;;;;;6.60;2.27;;;;;;;13.87;100.00;100811.41;5030120;28;20028;-77
2023/07/19 10:51:52;;;;;;;5.13;2.80;;;;;;;13.88;100.00;100822.97;5059377;28;20105;-76
2023/07/19 10:54:17;;;;;;;2.92;2.53;;;;;;;14.15;100.00;100843.84;5055085;28;20032;-77
2023/07/19 10:56:42;;;;;;;4.47;2.80;;;;;;;13.98;100.00;100833.44;5043869;28;20023;-76
2023/07/19 10:59:08;;;;;;;5.13;2.80;;;;;;;14.02;100.00;100837.44;5060784;28;20024;-79
2023/07/19 11:01:33;;;;;;;3.33;2.47;;;;;;;14.26;100.00;100853.31;5027599;28;20393;-76
2023/07/19 11:04:04;;;;;;;2.67;2.20;;;;;;;14.46;100.00;100863.50;5040904;28;20087;-76
2023/07/19 11:06:31;;;;;;;2.35;2.10;;;;;;;14.46;100.00;100845.53;5043138;28;20032;-76
2023/07/19 11:09:07;;;;;;;3.08;2.22;;;;;;;14.62;100.00;100849.09;5040881;28;20481;-77
2023/07/19 11:11:34;;;;;;;;;;;;;;;14.64;100.00;100842.50;5045534;28;20047;-77
2023/07/19 11:14:00;;;;;;;2.72;2.20;;;;;;;14.78;100.00;100836.28;5026051;28;19909;-77
2023/07/19 11:16:29;;;;;;;3.17;2.20;;;;;;;14.81;100.00;100812.75;5042886;28;20024;-77